Terminal Aerodrome Forecast
Issued by NWS

Home | Current Version | Previous Version | Text Only | Print | Product List | Glossary On
Versions: 1 2 3 4 5 6 7 8 9 10 11 12 13 14 15
000
FTUS45 KTFX 212323
TAFHLN
TAF
KHLN 212323Z 2200/2224 VRB06KT P6SM BKN060
     FM221400 VRB06KT 3SM BR SCT005 BKN030
     FM221800 VRB06KT P6SM FEW030 BKN070=

USA.gov is the U.S. government's official web portal to all federal, state and local government web resources and services.